sensor_id;sensor_type;location;lat;lon;timestamp;P1;durP1;ratioP1;P2;durP2;ratioP2
77535;SDS011;70085;44.530;0.094;2024-03-06T00:01:58;9.57;;;9.17;;
77535;SDS011;70085;44.530;0.094;2024-03-06T00:07:32;10.70;;;10.30;;
77535;SDS011;70085;44.530;0.094;2024-03-06T00:13:04;10.33;;;9.93;;
77535;SDS011;70085;44.530;0.094;2024-03-06T00:18:36;10.13;;;9.73;;
77535;SDS011;70085;44.530;0.094;2024-03-06T00:24:11;10.60;;;10.20;;
77535;SDS011;70085;44.530;0.094;2024-03-06T00:29:42;10.17;;;9.77;;
77535;SDS011;70085;44.530;0.094;2024-03-06T00:35:15;9.70;;;9.30;;
77535;SDS011;70085;44.530;0.094;2024-03-06T00:40:47;11.03;;;10.63;;
77535;SDS011;70085;44.530;0.094;2024-03-06T00:46:19;9.73;;;9.33;;
77535;SDS011;70085;44.530;0.094;2024-03-06T00:51:51;10.20;;;9.80;;
77535;SDS011;70085;44.530;0.094;2024-03-06T00:57:24;10.07;;;9.67;;
77535;SDS011;70085;44.530;0.094;2024-03-06T01:02:58;10.37;;;9.97;;
77535;SDS011;70085;44.530;0.094;2024-03-06T01:08:32;10.77;;;10.37;;
77535;SDS011;70085;44.530;0.094;2024-03-06T01:14:05;9.90;;;9.50;;
77535;SDS011;70085;44.530;0.094;2024-03-06T01:19:37;10.57;;;10.17;;
77535;SDS011;70085;44.530;0.094;2024-03-06T01:25:10;10.07;;;9.67;;
77535;SDS011;70085;44.530;0.094;2024-03-06T01:30:44;10.83;;;10.43;;
77535;SDS011;70085;44.530;0.094;2024-03-06T01:36:17;10.03;;;9.63;;
77535;SDS011;70085;44.530;0.094;2024-03-06T01:41:50;10.43;;;10.03;;
77535;SDS011;70085;44.530;0.094;2024-03-06T01:47:23;10.13;;;9.73;;
77535;SDS011;70085;44.530;0.094;2024-03-06T01:52:56;10.67;;;10.27;;
77535;SDS011;70085;44.530;0.094;2024-03-06T01:58:28;10.00;;;9.60;;
77535;SDS011;70085;44.530;0.094;2024-03-06T02:04:01;10.53;;;10.13;;
77535;SDS011;70085;44.530;0.094;2024-03-06T02:09:33;11.10;;;10.70;;
77535;SDS011;70085;44.530;0.094;2024-03-06T02:15:06;10.17;;;9.77;;
77535;SDS011;70085;44.530;0.094;2024-03-06T02:20:38;10.50;;;10.10;;
77535;SDS011;70085;44.530;0.094;2024-03-06T02:26:12;10.13;;;9.73;;
77535;SDS011;70085;44.530;0.094;2024-03-06T02:31:44;9.80;;;9.40;;
77535;SDS011;70085;44.530;0.094;2024-03-06T02:37:19;10.20;;;9.80;;
77535;SDS011;70085;44.530;0.094;2024-03-06T02:42:51;10.50;;;10.10;;
77535;SDS011;70085;44.530;0.094;2024-03-06T02:48:24;10.30;;;9.90;;
77535;SDS011;70085;44.530;0.094;2024-03-06T02:53:57;9.73;;;9.33;;
77535;SDS011;70085;44.530;0.094;2024-03-06T02:59:29;10.50;;;10.10;;
77535;SDS011;70085;44.530;0.094;2024-03-06T03:05:03;11.00;;;10.60;;
77535;SDS011;70085;44.530;0.094;2024-03-06T03:10:36;9.70;;;9.30;;
77535;SDS011;70085;44.530;0.094;2024-03-06T03:16:15;10.50;;;10.10;;
77535;SDS011;70085;44.530;0.094;2024-03-06T03:21:43;10.03;;;9.63;;
77535;SDS011;70085;44.530;0.094;2024-03-06T03:27:15;10.20;;;9.80;;
77535;SDS011;70085;44.530;0.094;2024-03-06T03:32:47;10.77;;;10.37;;
77535;SDS011;70085;44.530;0.094;2024-03-06T03:38:21;10.20;;;9.80;;
77535;SDS011;70085;44.530;0.094;2024-03-06T03:43:54;10.10;;;9.70;;
77535;SDS011;70085;44.530;0.094;2024-03-06T03:49:27;10.43;;;10.03;;
77535;SDS011;70085;44.530;0.094;2024-03-06T03:55:01;10.97;;;10.57;;
77535;SDS011;70085;44.530;0.094;2024-03-06T04:00:33;9.57;;;9.17;;
77535;SDS011;70085;44.530;0.094;2024-03-06T04:06:07;10.23;;;9.83;;
77535;SDS011;70085;44.530;0.094;2024-03-06T04:11:39;10.90;;;10.50;;
77535;SDS011;70085;44.530;0.094;2024-03-06T04:17:14;10.03;;;9.63;;
77535;SDS011;70085;44.530;0.094;2024-03-06T04:22:46;10.20;;;9.80;;
77535;SDS011;70085;44.530;0.094;2024-03-06T04:28:19;10.13;;;9.73;;
77535;SDS011;70085;44.530;0.094;2024-03-06T04:33:51;9.63;;;9.23;;
77535;SDS011;70085;44.530;0.094;2024-03-06T04:39:25;9.80;;;9.40;;
77535;SDS011;70085;44.530;0.094;2024-03-06T04:44:59;9.50;;;9.10;;
77535;SDS011;70085;44.530;0.094;2024-03-06T04:50:32;10.47;;;10.07;;
77535;SDS011;70085;44.530;0.094;2024-03-06T04:56:05;10.00;;;9.60;;
77535;SDS011;70085;44.530;0.094;2024-03-06T05:01:37;9.87;;;9.47;;
77535;SDS011;70085;44.530;0.094;2024-03-06T05:07:10;10.30;;;9.90;;
77535;SDS011;70085;44.530;0.094;2024-03-06T05:12:44;9.93;;;9.53;;
77535;SDS011;70085;44.530;0.094;2024-03-06T05:18:17;11.07;;;10.67;;
77535;SDS011;70085;44.530;0.094;2024-03-06T05:23:50;10.07;;;9.67;;
77535;SDS011;70085;44.530;0.094;2024-03-06T05:29:22;10.77;;;10.37;;
77535;SDS011;70085;44.530;0.094;2024-03-06T05:34:54;10.30;;;9.90;;
77535;SDS011;70085;44.530;0.094;2024-03-06T05:40:28;9.90;;;9.50;;
77535;SDS011;70085;44.530;0.094;2024-03-06T05:46:02;10.60;;;10.20;;
77535;SDS011;70085;44.530;0.094;2024-03-06T05:51:34;9.83;;;9.43;;
77535;SDS011;70085;44.530;0.094;2024-03-06T05:57:08;10.17;;;9.77;;
77535;SDS011;70085;44.530;0.094;2024-03-06T06:02:41;10.63;;;10.23;;
77535;SDS011;70085;44.530;0.094;2024-03-06T06:08:14;10.53;;;10.13;;
77535;SDS011;70085;44.530;0.094;2024-03-06T06:13:48;10.10;;;9.70;;
77535;SDS011;70085;44.530;0.094;2024-03-06T06:19:21;10.33;;;9.93;;
77535;SDS011;70085;44.530;0.094;2024-03-06T06:24:56;10.87;;;10.47;;
77535;SDS011;70085;44.530;0.094;2024-03-06T06:30:27;10.20;;;9.80;;
77535;SDS011;70085;44.530;0.094;2024-03-06T06:36:00;9.80;;;9.40;;
77535;SDS011;70085;44.530;0.094;2024-03-06T06:41:33;11.17;;;10.77;;
77535;SDS011;70085;44.530;0.094;2024-03-06T06:47:05;26.53;;;10.97;;
77535;SDS011;70085;44.530;0.094;2024-03-06T06:52:38;10.83;;;10.43;;
77535;SDS011;70085;44.530;0.094;2024-03-06T06:58:12;11.27;;;10.87;;
77535;SDS011;70085;44.530;0.094;2024-03-06T07:03:45;11.60;;;11.20;;
77535;SDS011;70085;44.530;0.094;2024-03-06T07:09:19;10.97;;;10.57;;
77535;SDS011;70085;44.530;0.094;2024-03-06T07:14:51;12.43;;;11.93;;
77535;SDS011;70085;44.530;0.094;2024-03-06T07:20:24;11.20;;;10.80;;
77535;SDS011;70085;44.530;0.094;2024-03-06T07:25:59;11.10;;;10.60;;
77535;SDS011;70085;44.530;0.094;2024-03-06T07:31:30;11.80;;;11.40;;
77535;SDS011;70085;44.530;0.094;2024-03-06T07:37:04;11.63;;;11.23;;
77535;SDS011;70085;44.530;0.094;2024-03-06T07:42:38;11.13;;;10.73;;
77535;SDS011;70085;44.530;0.094;2024-03-06T07:48:10;12.23;;;11.73;;
77535;SDS011;70085;44.530;0.094;2024-03-06T07:53:42;10.60;;;10.20;;
77535;SDS011;70085;44.530;0.094;2024-03-06T07:59:16;11.23;;;10.83;;
77535;SDS011;70085;44.530;0.094;2024-03-06T08:04:48;11.47;;;11.07;;
77535;SDS011;70085;44.530;0.094;2024-03-06T08:10:20;10.63;;;10.23;;
77535;SDS011;70085;44.530;0.094;2024-03-06T08:15:53;10.73;;;10.33;;
77535;SDS011;70085;44.530;0.094;2024-03-06T08:21:26;9.90;;;9.50;;
77535;SDS011;70085;44.530;0.094;2024-03-06T08:26:59;10.93;;;10.53;;
77535;SDS011;70085;44.530;0.094;2024-03-06T08:32:34;11.23;;;10.77;;
77535;SDS011;70085;44.530;0.094;2024-03-06T08:38:06;12.13;;;11.67;;
77535;SDS011;70085;44.530;0.094;2024-03-06T08:43:38;10.40;;;10.00;;
77535;SDS011;70085;44.530;0.094;2024-03-06T08:49:12;10.30;;;9.90;;
77535;SDS011;70085;44.530;0.094;2024-03-06T08:54:45;10.50;;;10.10;;
77535;SDS011;70085;44.530;0.094;2024-03-06T09:00:17;10.03;;;9.63;;
77535;SDS011;70085;44.530;0.094;2024-03-06T09:05:50;9.50;;;9.10;;
77535;SDS011;70085;44.530;0.094;2024-03-06T09:11:23;9.43;;;9.03;;
77535;SDS011;70085;44.530;0.094;2024-03-06T09:16:56;9.77;;;9.37;;
77535;SDS011;70085;44.530;0.094;2024-03-06T09:22:29;9.63;;;9.23;;
77535;SDS011;70085;44.530;0.094;2024-03-06T09:28:05;9.53;;;9.13;;
77535;SDS011;70085;44.530;0.094;2024-03-06T09:33:38;9.40;;;9.00;;
77535;SDS011;70085;44.530;0.094;2024-03-06T09:39:10;9.80;;;9.40;;
77535;SDS011;70085;44.530;0.094;2024-03-06T09:44:43;10.17;;;9.77;;
77535;SDS011;70085;44.530;0.094;2024-03-06T09:50:16;10.17;;;9.77;;
77535;SDS011;70085;44.530;0.094;2024-03-06T09:55:49;9.80;;;9.40;;
77535;SDS011;70085;44.530;0.094;2024-03-06T10:01:21;14.37;;;13.60;;
77535;SDS011;70085;44.530;0.094;2024-03-06T10:06:56;11.97;;;11.57;;
77535;SDS011;70085;44.530;0.094;2024-03-06T10:12:30;10.27;;;9.87;;
77535;SDS011;70085;44.530;0.094;2024-03-06T10:18:10;78.73;;;75.43;;
77535;SDS011;70085;44.530;0.094;2024-03-06T10:23:37;91.23;;;87.27;;
77535;SDS011;70085;44.530;0.094;2024-03-06T10:29:15;51.23;;;49.13;;
77535;SDS011;70085;44.530;0.094;2024-03-06T10:34:46;38.23;;;36.73;;
77535;SDS011;70085;44.530;0.094;2024-03-06T10:40:18;35.43;;;34.03;;
77535;SDS011;70085;44.530;0.094;2024-03-06T10:45:51;41.73;;;39.83;;
77535;SDS011;70085;44.530;0.094;2024-03-06T10:51:23;47.23;;;45.27;;
77535;SDS011;70085;44.530;0.094;2024-03-06T10:56:56;49.50;;;47.20;;
77535;SDS011;70085;44.530;0.094;2024-03-06T11:02:29;21.90;;;20.80;;
77535;SDS011;70085;44.530;0.094;2024-03-06T11:08:03;28.50;;;26.87;;
77535;SDS011;70085;44.530;0.094;2024-03-06T11:13:37;32.90;;;31.60;;
77535;SDS011;70085;44.530;0.094;2024-03-06T11:19:07;42.17;;;40.30;;
77535;SDS011;70085;44.530;0.094;2024-03-06T11:24:40;37.87;;;36.30;;
77535;SDS011;70085;44.530;0.094;2024-03-06T11:30:18;38.07;;;36.43;;
77535;SDS011;70085;44.530;0.094;2024-03-06T11:41:18;37.47;;;35.90;;
77535;SDS011;70085;44.530;0.094;2024-03-06T11:46:50;35.30;;;33.70;;
77535;SDS011;70085;44.530;0.094;2024-03-06T11:52:23;34.97;;;32.33;;
77535;SDS011;70085;44.530;0.094;2024-03-06T11:57:55;38.10;;;35.63;;
77535;SDS011;70085;44.530;0.094;2024-03-06T12:03:30;43.40;;;41.23;;
77535;SDS011;70085;44.530;0.094;2024-03-06T12:09:04;57.47;;;53.80;;
77535;SDS011;70085;44.530;0.094;2024-03-06T12:14:37;64.27;;;60.97;;
77535;SDS011;70085;44.530;0.094;2024-03-06T12:20:10;24.53;;;22.17;;
77535;SDS011;70085;44.530;0.094;2024-03-06T12:25:42;43.43;;;40.60;;
77535;SDS011;70085;44.530;0.094;2024-03-06T12:31:17;62.67;;;59.27;;
77535;SDS011;70085;44.530;0.094;2024-03-06T12:36:48;47.47;;;45.27;;
77535;SDS011;70085;44.530;0.094;2024-03-06T12:42:20;20.60;;;19.80;;
77535;SDS011;70085;44.530;0.094;2024-03-06T12:47:54;14.90;;;14.27;;
77535;SDS011;70085;44.530;0.094;2024-03-06T12:53:26;27.70;;;26.67;;
77535;SDS011;70085;44.530;0.094;2024-03-06T12:58:58;9.17;;;8.83;;
77535;SDS011;70085;44.530;0.094;2024-03-06T13:04:29;22.93;;;22.03;;
77535;SDS011;70085;44.530;0.094;2024-03-06T13:10:02;22.37;;;21.17;;
77535;SDS011;70085;44.530;0.094;2024-03-06T13:15:35;48.37;;;46.23;;
77535;SDS011;70085;44.530;0.094;2024-03-06T13:21:07;104.40;;;99.77;;
77535;SDS011;70085;44.530;0.094;2024-03-06T13:26:41;59.77;;;57.17;;
77535;SDS011;70085;44.530;0.094;2024-03-06T13:32:14;25.53;;;24.43;;
77535;SDS011;70085;44.530;0.094;2024-03-06T13:37:49;45.27;;;41.93;;
77535;SDS011;70085;44.530;0.094;2024-03-06T13:43:24;29.60;;;27.77;;
77535;SDS011;70085;44.530;0.094;2024-03-06T13:48:53;38.40;;;36.40;;
77535;SDS011;70085;44.530;0.094;2024-03-06T13:54:27;29.27;;;28.07;;
77535;SDS011;70085;44.530;0.094;2024-03-06T13:59:58;41.20;;;39.50;;
77535;SDS011;70085;44.530;0.094;2024-03-06T14:05:31;19.17;;;18.40;;
77535;SDS011;70085;44.530;0.094;2024-03-06T14:11:06;21.37;;;20.43;;
77535;SDS011;70085;44.530;0.094;2024-03-06T14:16:36;20.47;;;19.53;;
77535;SDS011;70085;44.530;0.094;2024-03-06T14:22:09;26.93;;;25.87;;
77535;SDS011;70085;44.530;0.094;2024-03-06T14:27:43;19.83;;;18.73;;
77535;SDS011;70085;44.530;0.094;2024-03-06T14:33:16;23.87;;;20.83;;
77535;SDS011;70085;44.530;0.094;2024-03-06T14:38:48;28.70;;;27.60;;
77535;SDS011;70085;44.530;0.094;2024-03-06T14:44:21;30.77;;;29.27;;
77535;SDS011;70085;44.530;0.094;2024-03-06T14:49:54;25.30;;;24.10;;
77535;SDS011;70085;44.530;0.094;2024-03-06T14:55:25;26.27;;;25.27;;
77535;SDS011;70085;44.530;0.094;2024-03-06T15:00:59;15.80;;;14.87;;
77535;SDS011;70085;44.530;0.094;2024-03-06T15:06:32;17.60;;;16.93;;
77535;SDS011;70085;44.530;0.094;2024-03-06T15:12:05;35.50;;;34.13;;
77535;SDS011;70085;44.530;0.094;2024-03-06T15:17:39;41.50;;;39.37;;
77535;SDS011;70085;44.530;0.094;2024-03-06T15:23:13;32.33;;;31.03;;
77535;SDS011;70085;44.530;0.094;2024-03-06T15:28:45;24.17;;;22.80;;
77535;SDS011;70085;44.530;0.094;2024-03-06T15:34:19;19.70;;;18.20;;
77535;SDS011;70085;44.530;0.094;2024-03-06T15:39:52;19.03;;;18.23;;
77535;SDS011;70085;44.530;0.094;2024-03-06T15:45:25;17.47;;;16.80;;
77535;SDS011;70085;44.530;0.094;2024-03-06T15:50:58;25.77;;;24.77;;
77535;SDS011;70085;44.530;0.094;2024-03-06T15:56:30;20.80;;;19.90;;
77535;SDS011;70085;44.530;0.094;2024-03-06T16:02:03;29.20;;;27.87;;
77535;SDS011;70085;44.530;0.094;2024-03-06T16:07:35;24.83;;;23.93;;
77535;SDS011;70085;44.530;0.094;2024-03-06T16:13:07;19.10;;;18.30;;
77535;SDS011;70085;44.530;0.094;2024-03-06T16:18:40;19.23;;;18.53;;
77535;SDS011;70085;44.530;0.094;2024-03-06T16:24:12;19.10;;;18.40;;
77535;SDS011;70085;44.530;0.094;2024-03-06T16:29:45;21.47;;;20.57;;
77535;SDS011;70085;44.530;0.094;2024-03-06T16:35:18;19.63;;;18.83;;
77535;SDS011;70085;44.530;0.094;2024-03-06T16:40:49;21.37;;;20.57;;
77535;SDS011;70085;44.530;0.094;2024-03-06T16:46:26;17.43;;;16.77;;
77535;SDS011;70085;44.530;0.094;2024-03-06T16:51:56;20.37;;;19.57;;
77535;SDS011;70085;44.530;0.094;2024-03-06T16:57:29;62.50;;;22.67;;
77535;SDS011;70085;44.530;0.094;2024-03-06T17:03:03;23.40;;;22.40;;
77535;SDS011;70085;44.530;0.094;2024-03-06T17:08:36;26.93;;;25.90;;
77535;SDS011;70085;44.530;0.094;2024-03-06T17:14:09;24.50;;;23.60;;
77535;SDS011;70085;44.530;0.094;2024-03-06T17:19:41;24.40;;;23.30;;
77535;SDS011;70085;44.530;0.094;2024-03-06T17:25:14;10.50;;;10.10;;
77535;SDS011;70085;44.530;0.094;2024-03-06T17:30:48;11.50;;;11.00;;
77535;SDS011;70085;44.530;0.094;2024-03-06T17:36:19;11.03;;;10.63;;
77535;SDS011;70085;44.530;0.094;2024-03-06T17:41:52;11.67;;;11.17;;
77535;SDS011;70085;44.530;0.094;2024-03-06T17:47:25;11.67;;;11.27;;
77535;SDS011;70085;44.530;0.094;2024-03-06T17:52:57;12.40;;;11.90;;
77535;SDS011;70085;44.530;0.094;2024-03-06T17:58:31;11.93;;;11.43;;
77535;SDS011;70085;44.530;0.094;2024-03-06T18:04:04;10.73;;;10.33;;
77535;SDS011;70085;44.530;0.094;2024-03-06T18:09:36;11.50;;;11.00;;
77535;SDS011;70085;44.530;0.094;2024-03-06T18:15:10;10.83;;;10.43;;
77535;SDS011;70085;44.530;0.094;2024-03-06T18:20:42;10.77;;;10.37;;
77535;SDS011;70085;44.530;0.094;2024-03-06T18:26:18;10.60;;;10.17;;
77535;SDS011;70085;44.530;0.094;2024-03-06T18:31:47;11.00;;;10.60;;
77535;SDS011;70085;44.530;0.094;2024-03-06T18:37:22;11.87;;;11.07;;
77535;SDS011;70085;44.530;0.094;2024-03-06T18:42:55;24.40;;;11.57;;
77535;SDS011;70085;44.530;0.094;2024-03-06T18:48:28;10.93;;;10.13;;
77535;SDS011;70085;44.530;0.094;2024-03-06T18:54:03;9.90;;;9.50;;
77535;SDS011;70085;44.530;0.094;2024-03-06T18:59:36;9.83;;;9.43;;
77535;SDS011;70085;44.530;0.094;2024-03-06T19:05:10;9.97;;;9.57;;
77535;SDS011;70085;44.530;0.094;2024-03-06T19:10:40;11.50;;;10.77;;
77535;SDS011;70085;44.530;0.094;2024-03-06T19:16:36;10.20;;;9.80;;
77535;SDS011;70085;44.530;0.094;2024-03-06T19:21:51;10.40;;;9.93;;
77535;SDS011;70085;44.530;0.094;2024-03-06T19:27:23;9.83;;;9.43;;
77535;SDS011;70085;44.530;0.094;2024-03-06T19:32:56;10.20;;;9.80;;
77535;SDS011;70085;44.530;0.094;2024-03-06T19:38:29;9.67;;;9.27;;
77535;SDS011;70085;44.530;0.094;2024-03-06T19:44:04;10.23;;;9.73;;
77535;SDS011;70085;44.530;0.094;2024-03-06T19:49:36;10.70;;;10.20;;
77535;SDS011;70085;44.530;0.094;2024-03-06T19:55:09;10.90;;;10.40;;
77535;SDS011;70085;44.530;0.094;2024-03-06T20:00:43;9.93;;;9.53;;
77535;SDS011;70085;44.530;0.094;2024-03-06T20:06:16;10.00;;;9.50;;
77535;SDS011;70085;44.530;0.094;2024-03-06T20:11:47;11.00;;;10.53;;
77535;SDS011;70085;44.530;0.094;2024-03-06T20:17:22;10.17;;;9.77;;
77535;SDS011;70085;44.530;0.094;2024-03-06T20:22:58;10.80;;;10.30;;
77535;SDS011;70085;44.530;0.094;2024-03-06T20:28:27;10.13;;;9.73;;
77535;SDS011;70085;44.530;0.094;2024-03-06T20:33:59;10.37;;;9.97;;
77535;SDS011;70085;44.530;0.094;2024-03-06T20:39:31;10.67;;;10.27;;
77535;SDS011;70085;44.530;0.094;2024-03-06T20:45:03;9.17;;;8.80;;
77535;SDS011;70085;44.530;0.094;2024-03-06T20:50:37;10.03;;;9.63;;
77535;SDS011;70085;44.530;0.094;2024-03-06T20:56:09;11.10;;;10.63;;
77535;SDS011;70085;44.530;0.094;2024-03-06T21:01:42;10.27;;;9.87;;
77535;SDS011;70085;44.530;0.094;2024-03-06T21:07:15;10.00;;;9.60;;
77535;SDS011;70085;44.530;0.094;2024-03-06T21:12:48;9.83;;;9.43;;
77535;SDS011;70085;44.530;0.094;2024-03-06T21:18:22;10.50;;;10.00;;
77535;SDS011;70085;44.530;0.094;2024-03-06T21:23:53;10.13;;;9.73;;
77535;SDS011;70085;44.530;0.094;2024-03-06T21:29:27;10.13;;;9.73;;
77535;SDS011;70085;44.530;0.094;2024-03-06T21:35:01;11.07;;;10.67;;
77535;SDS011;70085;44.530;0.094;2024-03-06T21:40:33;9.80;;;9.40;;
77535;SDS011;70085;44.530;0.094;2024-03-06T21:46:10;10.23;;;9.83;;
77535;SDS011;70085;44.530;0.094;2024-03-06T21:51:39;10.33;;;9.93;;
77535;SDS011;70085;44.530;0.094;2024-03-06T21:57:13;10.90;;;10.50;;
77535;SDS011;70085;44.530;0.094;2024-03-06T22:02:47;9.90;;;9.50;;
77535;SDS011;70085;44.530;0.094;2024-03-06T22:08:18;11.33;;;10.80;;
77535;SDS011;70085;44.530;0.094;2024-03-06T22:13:51;11.03;;;10.63;;
77535;SDS011;70085;44.530;0.094;2024-03-06T22:19:24;12.20;;;11.50;;
77535;SDS011;70085;44.530;0.094;2024-03-06T22:24:57;11.37;;;10.70;;
77535;SDS011;70085;44.530;0.094;2024-03-06T22:30:29;11.60;;;11.10;;
77535;SDS011;70085;44.530;0.094;2024-03-06T22:36:02;10.40;;;10.00;;
77535;SDS011;70085;44.530;0.094;2024-03-06T22:41:36;10.63;;;10.23;;
77535;SDS011;70085;44.530;0.094;2024-03-06T22:47:09;10.73;;;10.33;;
77535;SDS011;70085;44.530;0.094;2024-03-06T22:52:40;10.60;;;10.10;;
77535;SDS011;70085;44.530;0.094;2024-03-06T22:58:14;11.83;;;11.33;;
77535;SDS011;70085;44.530;0.094;2024-03-06T23:03:46;10.20;;;9.80;;
77535;SDS011;70085;44.530;0.094;2024-03-06T23:09:19;10.60;;;10.20;;
77535;SDS011;70085;44.530;0.094;2024-03-06T23:14:51;11.07;;;10.67;;
77535;SDS011;70085;44.530;0.094;2024-03-06T23:20:24;10.67;;;10.27;;
77535;SDS011;70085;44.530;0.094;2024-03-06T23:25:57;10.87;;;10.47;;
77535;SDS011;70085;44.530;0.094;2024-03-06T23:31:30;10.87;;;10.47;;
77535;SDS011;70085;44.530;0.094;2024-03-06T23:37:02;10.40;;;10.00;;
77535;SDS011;70085;44.530;0.094;2024-03-06T23:42:36;11.30;;;10.90;;
77535;SDS011;70085;44.530;0.094;2024-03-06T23:48:07;10.67;;;10.27;;
77535;SDS011;70085;44.530;0.094;2024-03-06T23:53:39;11.67;;;11.20;;
77535;SDS011;70085;44.530;0.094;2024-03-06T23:59:12;10.13;;;9.73;;
